createdAt,value
2023-08-13T00:01:29.069Z,13.81
2023-08-13T00:03:58.956Z,13.98
2023-08-13T00:06:27.740Z,13.87
2023-08-13T00:08:55.996Z,13.83
2023-08-13T00:11:24.379Z,13.79
2023-08-13T00:13:52.686Z,13.74
2023-08-13T00:16:21.403Z,13.77
2023-08-13T00:18:49.675Z,13.75
2023-08-13T00:21:19.306Z,13.58
2023-08-13T00:23:47.750Z,13.66
2023-08-13T00:26:15.960Z,13.61
2023-08-13T00:28:44.247Z,13.60
2023-08-13T00:31:13.692Z,13.80
2023-08-13T00:33:41.970Z,13.83
2023-08-13T00:36:10.243Z,13.71
2023-08-13T00:38:40.577Z,13.72
2023-08-13T00:41:09.208Z,13.61
2023-08-13T00:43:38.923Z,13.66
2023-08-13T00:46:09.027Z,13.52
2023-08-13T00:48:41.240Z,13.68
2023-08-13T00:51:11.786Z,13.56
2023-08-13T00:53:47.935Z,13.40
2023-08-13T00:56:17.042Z,13.35
2023-08-13T00:58:46.560Z,13.46
2023-08-13T01:01:15.146Z,13.39
2023-08-13T01:03:43.988Z,13.55
2023-08-13T01:06:21.505Z,13.62
2023-08-13T01:09:01.688Z,13.58
2023-08-13T01:11:47.677Z,13.60
2023-08-13T01:14:35.451Z,13.59
2023-08-13T01:17:04.737Z,13.55
2023-08-13T01:19:33.466Z,13.46
2023-08-13T01:22:01.904Z,13.38
2023-08-13T01:24:31.847Z,13.29
2023-08-13T01:27:13.561Z,13.31
2023-08-13T01:29:50.758Z,13.30
2023-08-13T01:32:23.358Z,13.32
2023-08-13T01:34:53.320Z,13.33
2023-08-13T01:37:23.759Z,13.32
2023-08-13T01:39:56.725Z,13.13
2023-08-13T01:42:25.110Z,13.03
2023-08-13T01:44:53.371Z,13.18
2023-08-13T01:47:21.778Z,13.21
2023-08-13T01:49:50.354Z,13.32
2023-08-13T01:52:18.844Z,13.28
2023-08-13T01:54:47.222Z,13.27
2023-08-13T01:57:16.796Z,13.18
2023-08-13T01:59:45.090Z,12.94
2023-08-13T02:02:13.630Z,13.16
2023-08-13T02:04:42.510Z,13.20
2023-08-13T02:07:10.768Z,13.14
2023-08-13T02:09:39.178Z,13.19
2023-08-13T02:12:09.136Z,13.01
2023-08-13T02:14:38.895Z,13.02
2023-08-13T02:17:07.836Z,13.04
2023-08-13T02:19:36.069Z,13.06
2023-08-13T02:22:04.423Z,13.05
2023-08-13T02:24:32.706Z,13.15
2023-08-13T02:27:00.986Z,13.14
2023-08-13T02:29:29.203Z,13.17
2023-08-13T02:31:58.911Z,12.89
2023-08-13T02:34:27.370Z,13.08
2023-08-13T02:36:55.774Z,12.95
2023-08-13T02:39:25.629Z,12.86
2023-08-13T02:41:53.951Z,12.75
2023-08-13T02:44:24.094Z,12.80
2023-08-13T02:46:52.357Z,12.78
2023-08-13T02:49:22.175Z,12.75
2023-08-13T02:51:50.587Z,12.80
2023-08-13T02:54:18.897Z,12.87
2023-08-13T02:56:47.196Z,12.93
2023-08-13T02:59:15.481Z,12.68
2023-08-13T03:01:45.959Z,12.72
2023-08-13T03:04:14.453Z,12.94
2023-08-13T03:06:44.152Z,12.98
2023-08-13T03:09:21.338Z,12.82
2023-08-13T03:11:49.835Z,12.94
2023-08-13T03:14:20.974Z,12.84
2023-08-13T03:16:50.945Z,12.89
2023-08-13T03:19:19.447Z,12.75
2023-08-13T03:21:49.643Z,12.72
2023-08-13T03:24:18.049Z,12.77
2023-08-13T03:26:46.684Z,12.75
2023-08-13T03:29:15.144Z,12.77
2023-08-13T03:31:43.547Z,12.51
2023-08-13T03:34:32.115Z,12.86
2023-08-13T03:37:01.673Z,12.91
2023-08-13T03:39:30.233Z,12.63
2023-08-13T03:41:58.906Z,12.88
2023-08-13T03:44:29.909Z,12.98
2023-08-13T03:46:58.255Z,13.00
2023-08-13T03:49:26.533Z,13.05
2023-08-13T03:51:55.325Z,13.02
2023-08-13T03:54:24.891Z,13.06
2023-08-13T03:56:53.169Z,13.01
2023-08-13T03:59:21.354Z,13.01
2023-08-13T04:01:49.740Z,12.95
2023-08-13T04:04:18.181Z,12.90
2023-08-13T04:06:46.990Z,12.58
2023-08-13T04:09:15.268Z,12.76
2023-08-13T04:11:44.935Z,12.78
2023-08-13T04:14:13.152Z,12.75
2023-08-13T04:16:41.378Z,12.75
2023-08-13T04:19:09.744Z,12.64
2023-08-13T04:21:38.232Z,12.59
2023-08-13T04:24:07.754Z,12.44
2023-08-13T04:26:36.677Z,12.51
2023-08-13T04:29:09.176Z,12.53
2023-08-13T04:31:39.418Z,12.24
2023-08-13T04:34:09.820Z,12.37
2023-08-13T04:36:38.391Z,12.29
2023-08-13T04:39:10.949Z,12.21
2023-08-13T04:41:41.899Z,12.31
2023-08-13T04:44:12.397Z,12.24
2023-08-13T04:46:40.806Z,12.35
2023-08-13T04:49:09.215Z,12.42
2023-08-13T04:51:37.893Z,12.40
2023-08-13T04:54:07.566Z,12.44
2023-08-13T04:56:36.068Z,12.46
2023-08-13T04:59:05.174Z,12.58
2023-08-13T05:01:36.462Z,12.52
2023-08-13T05:04:06.004Z,12.78
2023-08-13T05:06:37.527Z,12.89
2023-08-13T05:09:07.343Z,12.75
2023-08-13T05:11:35.684Z,12.84
2023-08-13T05:14:04.150Z,12.86
2023-08-13T05:16:35.170Z,13.03
2023-08-13T05:19:05.762Z,13.12
2023-08-13T05:21:34.355Z,13.18
2023-08-13T05:24:02.549Z,13.17
2023-08-13T05:26:31.687Z,13.15
2023-08-13T05:28:59.958Z,13.01
2023-08-13T05:31:28.366Z,12.94
2023-08-13T05:33:58.941Z,12.91
2023-08-13T05:36:27.853Z,12.74
2023-08-13T05:38:56.783Z,12.93
2023-08-13T05:41:25.033Z,12.86
2023-08-13T05:43:53.525Z,13.00
2023-08-13T05:46:22.126Z,13.16
2023-08-13T05:48:50.780Z,13.42
2023-08-13T05:51:20.324Z,13.37
2023-08-13T05:53:48.600Z,13.57
2023-08-13T05:56:16.883Z,13.69
2023-08-13T05:58:45.103Z,14.00
2023-08-13T06:01:14.701Z,14.14
2023-08-13T06:03:42.990Z,14.11
2023-08-13T06:06:11.835Z,14.21
2023-08-13T06:08:41.444Z,14.48
2023-08-13T06:11:10.007Z,14.71
2023-08-13T06:13:40.295Z,15.05
2023-08-13T06:16:08.959Z,15.31
2023-08-13T06:18:37.523Z,15.03
2023-08-13T06:21:06.107Z,15.34
2023-08-13T06:23:34.474Z,15.64
2023-08-13T06:26:04.204Z,15.80
2023-08-13T06:28:32.517Z,15.77
2023-08-13T06:31:00.963Z,16.20
2023-08-13T06:33:29.359Z,16.19
2023-08-13T06:35:57.668Z,16.10
2023-08-13T06:38:27.389Z,16.30
2023-08-13T06:40:55.822Z,16.43
2023-08-13T06:43:25.556Z,16.61
2023-08-13T06:45:55.161Z,16.78
2023-08-13T06:48:23.647Z,16.88
2023-08-13T06:50:56.558Z,16.95
2023-08-13T06:53:25.205Z,16.77
2023-08-13T06:55:54.269Z,16.74
2023-08-13T06:58:22.677Z,16.78
2023-08-13T07:00:52.253Z,16.85
2023-08-13T07:03:20.494Z,16.42
2023-08-13T07:05:48.803Z,17.07
2023-08-13T07:08:17.094Z,17.34
2023-08-13T07:10:45.349Z,17.51
2023-08-13T07:13:13.685Z,17.59
2023-08-13T07:15:42.755Z,17.88
2023-08-13T07:18:12.428Z,18.25
2023-08-13T07:20:41.195Z,18.16
2023-08-13T07:23:09.946Z,17.90
2023-08-13T07:25:38.186Z,17.40
2023-08-13T07:28:07.873Z,17.56
2023-08-13T07:30:36.493Z,17.63
2023-08-13T07:33:06.186Z,18.23
2023-08-13T07:35:37.013Z,18.65
2023-08-13T07:38:05.550Z,19.10
2023-08-13T07:40:34.237Z,19.29
2023-08-13T07:43:04.331Z,19.27
2023-08-13T07:45:32.883Z,19.09
2023-08-13T07:48:01.163Z,18.83
2023-08-13T07:50:31.031Z,18.98
2023-08-13T07:53:00.615Z,18.85
2023-08-13T07:55:29.201Z,19.14
2023-08-13T07:57:57.485Z,18.97
2023-08-13T08:00:26.139Z,19.23
2023-08-13T08:02:55.314Z,19.39
2023-08-13T08:05:24.085Z,19.47
2023-08-13T08:07:52.590Z,19.94
2023-08-13T08:10:22.346Z,20.42
2023-08-13T08:12:50.602Z,20.44
2023-08-13T08:15:18.864Z,20.48
2023-08-13T08:17:47.130Z,20.79
2023-08-13T08:20:15.465Z,20.99
2023-08-13T08:22:43.838Z,20.88
2023-08-13T08:25:13.228Z,20.97
2023-08-13T08:27:42.814Z,20.62
2023-08-13T08:30:12.576Z,20.14
2023-08-13T08:32:41.087Z,20.44
2023-08-13T08:35:09.865Z,19.96
2023-08-13T08:37:38.372Z,19.83
2023-08-13T08:40:09.212Z,19.80
2023-08-13T08:42:39.072Z,19.62
2023-08-13T08:45:11.685Z,19.63
2023-08-13T08:47:42.610Z,19.66
2023-08-13T08:50:14.248Z,19.73
2023-08-13T08:52:42.721Z,19.59
2023-08-13T08:55:12.976Z,19.35
2023-08-13T08:57:41.360Z,19.92
2023-08-13T09:00:12.529Z,19.88
2023-08-13T09:02:42.369Z,19.96
2023-08-13T09:05:11.361Z,19.88
2023-08-13T09:07:43.683Z,20.38
2023-08-13T09:10:13.127Z,20.69
2023-08-13T09:12:43.643Z,20.74
2023-08-13T09:15:15.180Z,20.76
2023-08-13T09:17:43.758Z,20.97
2023-08-13T09:20:19.284Z,21.07
2023-08-13T09:22:48.360Z,20.96
2023-08-13T09:25:17.610Z,21.16
2023-08-13T09:27:47.553Z,21.66
2023-08-13T09:30:29.823Z,21.67
2023-08-13T09:33:00.215Z,21.72
2023-08-13T09:35:29.428Z,21.21
2023-08-13T09:37:57.969Z,20.79
2023-08-13T09:40:26.709Z,21.33
2023-08-13T09:42:58.028Z,21.42
2023-08-13T09:45:30.441Z,21.50
2023-08-13T09:48:04.733Z,21.31
2023-08-13T09:50:36.807Z,21.44
2023-08-13T09:53:07.703Z,21.69
2023-08-13T09:55:45.614Z,21.34
2023-08-13T09:58:16.634Z,21.29
2023-08-13T10:00:47.479Z,21.38
2023-08-13T10:03:18.439Z,21.73
2023-08-13T10:05:48.112Z,21.64
2023-08-13T10:08:18.060Z,21.39
2023-08-13T10:10:47.199Z,21.63
2023-08-13T10:13:16.090Z,21.76
2023-08-13T10:15:47.616Z,21.81
2023-08-13T10:18:18.682Z,22.00
2023-08-13T10:20:47.845Z,22.24
2023-08-13T10:23:18.722Z,22.11
2023-08-13T10:25:46.996Z,22.34
2023-08-13T10:28:23.408Z,22.38
2023-08-13T10:31:26.042Z,22.60
2023-08-13T10:34:12.915Z,22.80
2023-08-13T10:36:53.377Z,22.55
2023-08-13T10:39:41.863Z,23.15
2023-08-13T10:42:48.828Z,23.39
2023-08-13T10:45:19.359Z,23.12
2023-08-13T10:47:54.755Z,23.27
2023-08-13T10:50:30.080Z,23.41
2023-08-13T10:53:06.663Z,23.60
2023-08-13T10:55:37.569Z,23.37
2023-08-13T10:58:06.730Z,23.91
2023-08-13T11:00:44.632Z,24.50
2023-08-13T11:03:22.832Z,24.53
2023-08-13T11:05:53.266Z,24.43
2023-08-13T11:08:37.345Z,24.60
2023-08-13T11:11:13.137Z,24.41
2023-08-13T11:13:42.078Z,24.29
2023-08-13T11:16:10.374Z,24.16
2023-08-13T11:18:40.277Z,24.22
2023-08-13T11:21:10.464Z,24.16
2023-08-13T11:23:38.967Z,23.85
2023-08-13T11:26:07.434Z,23.90
2023-08-13T11:28:35.970Z,24.11
2023-08-13T11:31:04.316Z,23.64
2023-08-13T11:33:32.781Z,24.06
2023-08-13T11:36:02.771Z,24.44
2023-08-13T11:38:31.076Z,24.57
2023-08-13T11:40:59.742Z,24.21
2023-08-13T11:43:31.143Z,23.55
2023-08-13T11:45:59.637Z,23.76
2023-08-13T11:48:31.117Z,24.25
2023-08-13T11:51:20.695Z,24.41
2023-08-13T11:53:51.128Z,24.11
2023-08-13T11:56:20.986Z,23.95
2023-08-13T11:58:50.699Z,23.94
2023-08-13T12:01:18.938Z,24.07
2023-08-13T12:03:47.642Z,23.91
2023-08-13T12:06:17.387Z,23.94
2023-08-13T12:08:47.463Z,24.19
2023-08-13T12:11:15.948Z,24.30
2023-08-13T12:13:46.438Z,24.21
2023-08-13T12:16:15.224Z,24.36
2023-08-13T12:18:43.757Z,24.34
2023-08-13T12:21:12.700Z,23.89
2023-08-13T12:23:42.358Z,24.29
2023-08-13T12:26:11.794Z,24.83
2023-08-13T12:28:40.295Z,25.03
2023-08-13T12:31:08.638Z,24.68
2023-08-13T12:33:36.937Z,24.58
2023-08-13T12:36:06.494Z,24.74
2023-08-13T12:38:37.997Z,24.71
2023-08-13T12:41:08.417Z,24.73
2023-08-13T12:43:37.995Z,24.74
2023-08-13T12:46:07.927Z,24.84
2023-08-13T12:48:39.266Z,24.80
2023-08-13T12:51:07.670Z,24.79
2023-08-13T12:53:36.863Z,24.51
2023-08-13T12:56:07.125Z,24.33
2023-08-13T12:58:36.551Z,24.07
2023-08-13T13:01:04.908Z,23.68
2023-08-13T13:03:33.307Z,23.73
2023-08-13T13:06:01.717Z,23.39
2023-08-13T13:08:30.102Z,23.28
2023-08-13T13:10:58.616Z,22.90
2023-08-13T13:13:29.458Z,22.67
2023-08-13T13:15:57.716Z,22.07
2023-08-13T13:18:25.981Z,21.60
2023-08-13T13:20:54.842Z,21.08
2023-08-13T13:23:23.190Z,20.66
2023-08-13T13:25:51.553Z,20.18
2023-08-13T13:28:19.902Z,19.99
2023-08-13T13:30:49.509Z,19.91
2023-08-13T13:33:17.929Z,20.08
2023-08-13T13:35:46.199Z,20.18
2023-08-13T13:38:14.600Z,19.73
2023-08-13T13:40:42.923Z,19.64
2023-08-13T13:43:11.188Z,19.39
2023-08-13T13:45:40.346Z,18.74
2023-08-13T13:48:10.823Z,18.74
2023-08-13T13:50:39.397Z,18.59
2023-08-13T13:53:19.256Z,18.51
2023-08-13T13:55:49.660Z,18.49
2023-08-13T13:58:17.856Z,18.66
2023-08-13T14:00:49.987Z,19.08
2023-08-13T14:03:20.518Z,19.51
2023-08-13T14:05:53.519Z,19.57
2023-08-13T14:08:21.935Z,19.88
2023-08-13T14:10:50.180Z,20.15
2023-08-13T14:13:18.382Z,20.15
2023-08-13T14:15:47.036Z,20.23
2023-08-13T14:18:15.590Z,20.65
2023-08-13T14:20:45.208Z,20.92
2023-08-13T14:23:13.541Z,21.16
2023-08-13T14:25:41.772Z,20.95
2023-08-13T14:28:10.195Z,21.10
2023-08-13T14:30:38.614Z,21.16
2023-08-13T14:33:07.108Z,21.00
2023-08-13T14:35:35.804Z,20.78
2023-08-13T14:38:05.785Z,20.83
2023-08-13T14:40:34.013Z,20.84
2023-08-13T14:43:02.433Z,20.69
2023-08-13T14:45:30.771Z,20.76
2023-08-13T14:47:59.171Z,20.95
2023-08-13T14:50:27.587Z,21.24
2023-08-13T14:52:55.953Z,20.96
2023-08-13T14:55:25.782Z,21.22
2023-08-13T14:57:54.020Z,21.52
2023-08-13T15:00:23.636Z,21.27
2023-08-13T15:02:52.423Z,21.61
2023-08-13T15:05:20.962Z,21.75
2023-08-13T15:07:49.265Z,21.64
2023-08-13T15:10:18.899Z,21.98
2023-08-13T15:12:48.644Z,22.44
2023-08-13T15:15:18.839Z,22.70
2023-08-13T15:17:47.615Z,22.91
2023-08-13T15:20:16.040Z,22.98
2023-08-13T15:22:44.360Z,23.31
2023-08-13T15:25:13.096Z,22.84
2023-08-13T15:27:42.643Z,22.21
2023-08-13T15:30:14.655Z,21.96
2023-08-13T15:32:43.114Z,22.35
2023-08-13T15:35:12.299Z,22.70
2023-08-13T15:37:40.951Z,22.76
2023-08-13T15:40:10.701Z,22.80
2023-08-13T15:42:39.163Z,22.59
2023-08-13T15:45:08.984Z,22.19
2023-08-13T15:47:39.346Z,22.08
2023-08-13T15:50:08.958Z,21.61
2023-08-13T15:52:37.218Z,21.60
2023-08-13T15:55:06.222Z,21.87
2023-08-13T15:57:34.606Z,22.17
2023-08-13T16:00:06.476Z,22.42
2023-08-13T16:02:43.166Z,22.69
2023-08-13T16:05:13.514Z,22.48
2023-08-13T16:07:41.989Z,22.55
2023-08-13T16:10:10.539Z,22.44
2023-08-13T16:12:38.950Z,22.35
2023-08-13T16:15:09.496Z,22.26
2023-08-13T16:17:41.200Z,22.55
2023-08-13T16:20:13.523Z,22.42
2023-08-13T16:22:44.401Z,22.41
2023-08-13T16:25:13.005Z,21.79
2023-08-13T16:27:41.510Z,21.47
2023-08-13T16:30:11.822Z,21.44
2023-08-13T16:32:40.400Z,21.45
2023-08-13T16:35:12.568Z,21.19
2023-08-13T16:37:40.987Z,21.28
2023-08-13T16:40:10.544Z,21.31
2023-08-13T16:42:51.196Z,21.33
2023-08-13T16:45:27.667Z,21.34
2023-08-13T16:47:56.236Z,21.32
2023-08-13T16:50:26.188Z,21.37
2023-08-13T16:52:55.705Z,21.37
2023-08-13T16:55:23.972Z,21.27
2023-08-13T16:57:52.235Z,21.35
2023-08-13T17:00:20.534Z,21.45
2023-08-13T17:02:48.903Z,21.52
2023-08-13T17:05:17.907Z,21.48
2023-08-13T17:07:47.547Z,21.64
2023-08-13T17:10:16.422Z,21.79
2023-08-13T17:12:44.762Z,22.07
2023-08-13T17:15:23.971Z,21.67
2023-08-13T17:17:54.958Z,21.79
2023-08-13T17:20:24.022Z,21.37
2023-08-13T17:22:54.396Z,21.36
2023-08-13T17:25:22.903Z,21.12
2023-08-13T17:27:51.347Z,21.09
2023-08-13T17:30:20.049Z,20.95
2023-08-13T17:32:49.032Z,21.02
2023-08-13T17:35:17.341Z,21.01
2023-08-13T17:37:47.015Z,20.83
2023-08-13T17:40:17.369Z,20.31
2023-08-13T17:42:45.680Z,20.60
2023-08-13T17:45:14.244Z,20.50
2023-08-13T17:47:42.670Z,20.38
2023-08-13T17:50:12.670Z,20.05
2023-08-13T17:52:40.992Z,20.15
2023-08-13T17:55:10.199Z,20.09
2023-08-13T17:57:39.877Z,19.86
2023-08-13T18:00:10.230Z,19.78
2023-08-13T18:02:41.315Z,20.03
2023-08-13T18:05:10.908Z,19.97
2023-08-13T18:07:39.564Z,20.04
2023-08-13T18:10:08.586Z,20.04
2023-08-13T18:12:37.586Z,19.95
2023-08-13T18:15:08.301Z,19.86
2023-08-13T18:17:36.624Z,19.80
2023-08-13T18:20:09.337Z,19.77
2023-08-13T18:22:42.800Z,19.65
2023-08-13T18:25:13.796Z,19.81
2023-08-13T18:27:42.620Z,19.54
2023-08-13T18:30:13.193Z,19.52
2023-08-13T18:32:41.427Z,19.49
2023-08-13T18:35:10.317Z,19.41
2023-08-13T18:37:38.842Z,19.30
2023-08-13T18:40:10.849Z,19.06
2023-08-13T18:42:39.237Z,18.72
2023-08-13T18:45:09.254Z,18.63
2023-08-13T18:47:38.941Z,18.62
2023-08-13T18:50:09.162Z,18.52
2023-08-13T18:52:38.254Z,18.49
2023-08-13T18:55:08.177Z,18.38
2023-08-13T18:57:36.714Z,18.36
2023-08-13T19:00:06.568Z,18.33
2023-08-13T19:02:37.997Z,18.30
2023-08-13T19:05:07.525Z,18.23
2023-08-13T19:07:35.900Z,18.16
2023-08-13T19:10:04.748Z,18.09
2023-08-13T19:12:32.999Z,17.99
2023-08-13T19:15:01.510Z,17.96
2023-08-13T19:17:29.814Z,17.84
2023-08-13T19:19:59.511Z,17.59
2023-08-13T19:22:27.721Z,17.61
2023-08-13T19:24:55.931Z,17.57
2023-08-13T19:27:24.237Z,17.51
2023-08-13T19:29:52.578Z,17.47
2023-08-13T19:32:20.959Z,17.36
2023-08-13T19:34:50.477Z,17.37
2023-08-13T19:37:20.109Z,17.30
2023-08-13T19:39:48.428Z,17.25
2023-08-13T19:42:17.075Z,17.23
2023-08-13T19:44:45.475Z,17.22
2023-08-13T19:47:13.742Z,17.16
2023-08-13T19:49:42.107Z,17.09
2023-08-13T19:52:10.658Z,17.06
2023-08-13T19:54:40.257Z,16.77
2023-08-13T19:57:08.954Z,16.66
2023-08-13T19:59:37.529Z,16.65
2023-08-13T20:02:06.620Z,16.60
2023-08-13T20:04:34.961Z,16.59
2023-08-13T20:07:03.374Z,16.54
2023-08-13T20:09:31.603Z,16.48
2023-08-13T20:12:01.200Z,16.45
2023-08-13T20:14:29.441Z,16.42
2023-08-13T20:16:57.766Z,16.39
2023-08-13T20:19:26.271Z,16.18
2023-08-13T20:21:57.626Z,15.99
2023-08-13T20:24:26.277Z,15.86
2023-08-13T20:26:56.721Z,16.01
2023-08-13T20:29:26.632Z,15.96
2023-08-13T20:31:55.320Z,15.92
2023-08-13T20:34:23.592Z,15.77
2023-08-13T20:36:52.419Z,15.53
2023-08-13T20:39:20.799Z,15.73
2023-08-13T20:41:49.215Z,15.74
2023-08-13T20:44:18.130Z,15.66
2023-08-13T20:46:49.657Z,15.38
2023-08-13T20:49:23.373Z,15.51
2023-08-13T20:51:53.296Z,15.50
2023-08-13T20:54:23.326Z,15.50
2023-08-13T20:56:51.674Z,15.43
2023-08-13T20:59:19.921Z,15.36
2023-08-13T21:01:49.525Z,15.24
2023-08-13T21:04:18.170Z,15.33
2023-08-13T21:06:46.646Z,15.20
2023-08-13T21:09:15.209Z,15.22
2023-08-13T21:11:46.135Z,15.09
2023-08-13T21:14:14.406Z,15.14
2023-08-13T21:16:42.864Z,15.09
2023-08-13T21:19:12.758Z,14.95
2023-08-13T21:21:41.002Z,15.04
2023-08-13T21:24:09.290Z,14.96
2023-08-13T21:26:37.655Z,14.95
2023-08-13T21:29:06.136Z,14.90
2023-08-13T21:31:34.606Z,14.91
2023-08-13T21:34:02.756Z,14.99
2023-08-13T21:36:32.381Z,14.95
2023-08-13T21:39:00.915Z,14.84
2023-08-13T21:41:29.198Z,14.76
2023-08-13T21:43:57.517Z,14.75
2023-08-13T21:46:25.834Z,14.72
2023-08-13T21:48:54.285Z,14.64
2023-08-13T21:51:22.670Z,14.51
2023-08-13T21:53:52.235Z,14.51
2023-08-13T21:56:20.572Z,14.52
2023-08-13T21:58:48.803Z,14.54
2023-08-13T22:01:17.334Z,14.52
2023-08-13T22:03:45.868Z,14.42
2023-08-13T22:06:14.235Z,14.38
2023-08-13T22:08:42.734Z,14.29
2023-08-13T22:11:12.433Z,14.33
2023-08-13T22:13:40.670Z,14.11
2023-08-13T22:16:08.925Z,14.23
2023-08-13T22:18:37.303Z,14.15
2023-08-13T22:21:05.798Z,13.81
2023-08-13T22:23:34.431Z,14.08
2023-08-13T22:26:16.243Z,14.06
2023-08-13T22:28:47.838Z,13.99
2023-08-13T22:31:16.382Z,13.97
2023-08-13T22:33:44.621Z,13.86
2023-08-13T22:36:12.923Z,13.81
2023-08-13T22:38:41.167Z,13.70
2023-08-13T22:41:09.969Z,13.61
2023-08-13T22:43:39.692Z,13.50
2023-08-13T22:46:09.336Z,13.65
2023-08-13T22:48:38.081Z,13.54
2023-08-13T22:51:06.380Z,13.59
2023-08-13T22:53:34.632Z,13.62
2023-08-13T22:56:02.912Z,13.62
2023-08-13T22:58:31.403Z,13.61
2023-08-13T23:01:00.087Z,13.60
2023-08-13T23:03:29.712Z,13.53
2023-08-13T23:05:59.273Z,13.48
2023-08-13T23:08:27.789Z,13.48
2023-08-13T23:10:56.826Z,13.32
2023-08-13T23:13:25.078Z,13.35
2023-08-13T23:15:53.479Z,13.04
2023-08-13T23:18:21.787Z,13.23
2023-08-13T23:20:51.558Z,13.16
2023-08-13T23:23:19.801Z,13.18
2023-08-13T23:25:48.083Z,13.15
2023-08-13T23:28:16.601Z,13.19
2023-08-13T23:30:45.942Z,13.16
2023-08-13T23:33:14.201Z,13.11
2023-08-13T23:35:42.409Z,13.00
2023-08-13T23:38:14.612Z,12.92
2023-08-13T23:40:42.856Z,12.79
2023-08-13T23:43:10.977Z,12.85
2023-08-13T23:45:40.010Z,12.92
2023-08-13T23:48:08.459Z,12.82
2023-08-13T23:50:50.007Z,12.88
2023-08-13T23:53:24.676Z,12.77
2023-08-13T23:55:53.038Z,12.72
2023-08-13T23:58:21.273Z,12.70
